Time;durP1;ratioP1;P1;durP2;ratioP2;P2;SDS_P1;SDS_P2;PMS_P1;PMS_P2;Temp;Humidity;BMP_temperature;BMP_pressure;BME280_temperature;BME280_humidity;BME280_pressure;Samples;Min_cycle;Max_cycle;Signal;HPM_P1;HPM_P2
2021/04/08 00:00:31;;;;;;;7.17;6.22;;;;;;;8.99;52.20;101391.02;1732377;83;21144;-48
2021/04/08 00:03:00;;;;;;;6.75;5.70;;;;;;;8.98;52.22;101389.31;1732641;83;21184;-51
2021/04/08 00:05:28;;;;;;;8.23;6.70;;;;;;;8.98;52.14;101387.55;1726591;83;21581;-49
2021/04/08 00:07:58;;;;;;;7.22;6.37;;;;;;;8.96;52.20;101388.46;1732636;82;21130;-47
2021/04/08 00:10:26;;;;;;;7.72;5.97;;;;;;;8.95;52.25;101397.10;1731671;83;21196;-48
2021/04/08 00:12:55;;;;;;;8.43;6.35;;;;;;;8.91;52.39;101390.20;1732788;82;21565;-48
2021/04/08 00:15:23;;;;;;;6.90;6.20;;;;;;;8.85;52.63;101390.23;1732573;82;21173;-45
2021/04/08 00:17:51;;;;;;;7.12;6.08;;;;;;;8.87;52.61;101400.17;1732821;83;21588;-50
2021/04/08 00:20:20;;;;;;;7.72;6.20;;;;;;;8.85;52.61;101398.89;1750759;80;21168;-45
2021/04/08 00:22:49;;;;;;;7.22;6.12;;;;;;;8.87;52.70;101396.28;1722496;83;21118;-47
2021/04/08 00:25:16;;;;;;;6.97;6.28;;;;;;;8.89;52.50;101406.22;1767393;81;21546;-48
2021/04/08 00:27:46;;;;;;;7.75;6.78;;;;;;;8.91;52.39;101414.86;1771366;81;21307;-49
2021/04/08 00:30:17;;;;;;;8.63;7.25;;;;;;;8.89;52.14;101416.17;1679604;84;21161;-49
2021/04/08 00:32:44;;;;;;;10.78;7.65;;;;;;;8.87;52.01;101414.45;1758362;81;21172;-48
2021/04/08 00:35:13;;;;;;;9.08;8.18;;;;;;;8.83;52.03;101407.55;1764368;81;21176;-50
2021/04/08 00:37:41;;;;;;;10.20;8.28;;;;;;;8.79;51.91;101426.59;1771557;81;21173;-48
2021/04/08 00:40:12;;;;;;;8.95;7.37;;;;;;;8.75;51.99;101452.12;1683962;85;21189;-51
2021/04/08 00:42:41;;;;;;;9.73;7.87;;;;;;;8.71;52.06;101446.52;1737830;82;21174;-50
2021/04/08 00:45:10;;;;;;;8.25;6.37;;;;;;;8.70;52.18;101430.50;1737989;82;21174;-46
2021/04/08 00:47:39;;;;;;;9.70;7.15;;;;;;;8.69;52.19;101433.98;1737824;82;21316;-46
2021/04/08 00:50:09;;;;;;;10.28;7.45;;;;;;;8.71;52.01;101429.65;1737823;82;21245;-45
2021/04/08 00:52:37;;;;;;;12.18;7.35;;;;;;;8.72;51.80;101453.41;1737838;82;21156;-44
2021/04/08 00:55:07;;;;;;;10.68;8.08;;;;;;;8.74;51.69;101474.61;1713653;82;21167;-48
2021/04/08 00:57:35;;;;;;;9.35;7.15;;;;;;;8.67;51.87;101471.62;1737830;82;21617;-47
2021/04/08 01:00:07;;;;;;;9.05;7.28;;;;;;;8.74;51.76;101469.84;1737780;82;21166;-51
2021/04/08 01:02:35;;;;;;;;;;;;;;;8.76;51.61;101470.70;1740765;82;21631;-49
2021/04/08 01:05:03;;;;;;;7.12;6.42;;;;;;;8.73;51.56;101476.78;1737997;82;20222;-45
2021/04/08 01:07:33;;;;;;;8.58;7.67;;;;;;;8.69;51.62;101468.58;1737782;82;21133;-45
2021/04/08 01:10:04;;;;;;;8.48;6.53;;;;;;;8.67;51.71;101485.88;1737741;82;21350;-45
2021/04/08 01:12:34;;;;;;;11.12;8.18;;;;;;;8.66;51.63;101478.08;1737940;82;21153;-45
2021/04/08 01:15:07;;;;;;;9.48;7.30;;;;;;;8.65;51.70;101472.48;1737797;82;21208;-45
2021/04/08 01:17:50;;;;;;;10.98;8.15;;;;;;;8.66;51.83;101488.03;1735282;82;21624;-47
2021/04/08 01:20:43;;;;;;;15.43;9.00;;;;;;;8.69;51.76;101497.13;1740094;82;21125;-45
2021/04/08 01:23:43;;;;;;;9.53;8.33;;;;;;;8.74;51.65;101474.61;1743145;82;21156;-49
2021/04/08 01:26:53;;;;;;;10.23;7.53;;;;;;;8.79;51.52;101472.00;1743070;82;21190;-49
2021/04/08 01:29:43;;;;;;;9.43;7.45;;;;;;;8.80;51.36;101459.44;1741727;82;21191;-47
2021/04/08 01:32:13;;;;;;;10.00;7.70;;;;;;;8.79;51.23;101453.41;1737797;82;21145;-49
2021/04/08 01:34:48;;;;;;;8.28;7.15;;;;;;;8.74;51.03;101489.30;1743021;82;21160;-46
2021/04/08 01:37:18;;;;;;;13.95;8.50;;;;;;;8.72;50.99;101516.55;1740479;82;21295;-48
2021/04/08 01:39:48;;;;;;;12.68;9.25;;;;;;;8.69;51.00;101514.41;1769015;80;21204;-49
2021/04/08 01:42:16;;;;;;;11.28;8.40;;;;;;;8.61;51.18;101513.14;1739194;82;21175;-50
2021/04/08 01:44:44;;;;;;;9.85;8.13;;;;;;;8.53;51.44;101499.74;1712745;83;21168;-46
2021/04/08 01:47:13;;;;;;;9.98;7.92;;;;;;;8.51;51.48;101484.62;1691343;83;21156;-46
2021/04/08 01:49:43;;;;;;;9.53;7.62;;;;;;;8.39;51.91;101510.12;1710695;83;21157;-50
2021/04/08 01:52:15;;;;;;;8.85;7.95;;;;;;;8.37;51.98;101514.87;1745093;82;21188;-49
2021/04/08 01:54:47;;;;;;;12.18;8.10;;;;;;;8.57;51.36;101518.33;1737450;82;21152;-45
2021/04/08 01:57:16;;;;;;;14.10;8.08;;;;;;;8.67;51.08;101525.23;1737067;81;21164;-50
2021/04/08 01:59:44;;;;;;;9.28;7.45;;;;;;;8.69;51.02;101518.30;1687565;82;21176;-46
2021/04/08 02:02:12;;;;;;;9.55;7.72;;;;;;;8.69;51.02;101524.79;1710446;83;21192;-48
2021/04/08 02:04:41;;;;;;;9.90;7.65;;;;;;;8.69;50.93;101532.14;1710504;83;21622;-50
2021/04/08 02:07:08;;;;;;;10.40;7.20;;;;;;;8.72;50.82;101531.25;1710733;83;21588;-45
2021/04/08 02:09:39;;;;;;;11.08;7.28;;;;;;;8.71;50.73;101529.54;1717317;83;21197;-45
2021/04/08 02:12:09;;;;;;;10.70;8.05;;;;;;;8.69;50.67;101522.20;1725291;83;21156;-49
2021/04/08 02:14:38;;;;;;;10.48;8.25;;;;;;;8.69;50.59;101520.90;1737622;82;21212;-46
2021/04/08 02:17:06;;;;;;;12.55;7.75;;;;;;;8.68;50.55;101521.75;1739121;82;21152;-49
2021/04/08 02:19:34;;;;;;;8.35;7.50;;;;;;;8.69;50.61;101533.45;1711049;83;21164;-52
2021/04/08 02:22:02;;;;;;;9.68;7.65;;;;;;;8.70;50.67;101539.05;1768856;80;21149;-49
2021/04/08 02:24:30;;;;;;;13.00;8.40;;;;;;;8.75;50.69;101544.23;1738021;82;21664;-49
2021/04/08 02:27:00;;;;;;;12.43;8.50;;;;;;;8.76;50.57;101545.95;1722436;82;21154;-48
2021/04/08 02:29:27;;;;;;;13.95;8.70;;;;;;;8.75;50.36;101540.34;1771471;81;21189;-49
2021/04/08 02:31:56;;;;;;;11.70;8.00;;;;;;;8.74;50.21;101536.88;1730210;82;21599;-49
2021/04/08 02:34:24;;;;;;;10.90;8.08;;;;;;;8.73;50.15;101548.56;1763419;81;21138;-47
2021/04/08 02:36:52;;;;;;;10.78;8.50;;;;;;;8.68;50.12;101556.34;1735540;82;21137;-48
2021/04/08 02:39:20;;;;;;;9.63;7.78;;;;;;;8.67;50.18;101560.25;1761634;81;21589;-49
2021/04/08 02:41:48;;;;;;;9.60;7.65;;;;;;;8.62;50.43;101556.36;1774397;81;21176;-45
2021/04/08 02:44:17;;;;;;;11.38;8.45;;;;;;;8.60;50.67;101563.70;1731256;82;21153;-45
2021/04/08 02:46:46;;;;;;;11.83;7.70;;;;;;;8.59;50.61;101556.80;1777041;81;21298;-48
2021/04/08 02:49:15;;;;;;;10.93;7.80;;;;;;;8.58;50.68;101556.36;1735215;82;21150;-49
2021/04/08 02:51:56;;;;;;;10.18;8.68;;;;;;;8.60;50.74;101557.22;1726081;82;21114;-45
2021/04/08 02:54:39;;;;;;;9.65;8.13;;;;;;;8.63;50.70;101563.30;1764973;81;21570;-48
2021/04/08 02:57:08;;;;;;;11.28;7.72;;;;;;;8.65;50.47;101577.13;1689557;83;21619;-46
2021/04/08 02:59:55;;;;;;;10.58;8.03;;;;;;;8.66;50.28;101577.54;1678642;83;21167;-48
2021/04/08 03:02:27;;;;;;;10.90;8.18;;;;;;;8.67;50.20;101587.49;1696075;83;21180;-45
2021/04/08 03:04:58;;;;;;;8.60;7.70;;;;;;;8.65;50.05;101590.09;1653131;86;21206;-48
2021/04/08 03:07:31;;;;;;;10.40;7.22;;;;;;;8.64;49.94;101597.43;1690908;83;21184;-47
2021/04/08 03:09:59;;;;;;;11.65;6.95;;;;;;;8.62;49.67;101602.18;1654262;86;21197;-48
2021/04/08 03:12:27;;;;;;;9.58;7.30;;;;;;;8.60;49.53;101606.51;1681494;84;21182;-47
2021/04/08 03:14:56;;;;;;;7.92;7.10;;;;;;;8.54;49.31;101602.63;1700040;83;21161;-48
2021/04/08 03:17:31;;;;;;;9.43;7.33;;;;;;;8.50;49.31;101605.66;1664979;83;21252;-48
2021/04/08 03:20:00;;;;;;;9.05;7.40;;;;;;;8.47;49.29;101609.53;1699645;83;21188;-48
2021/04/08 03:22:28;;;;;;;9.40;7.78;;;;;;;8.44;49.29;101606.08;1685808;83;21204;-44
2021/04/08 03:24:57;;;;;;;9.13;7.47;;;;;;;8.41;49.33;101595.72;1702306;83;21164;-46
2021/04/08 03:27:26;;;;;;;11.80;7.37;;;;;;;8.40;49.27;101604.34;1717306;80;21302;-48
2021/04/08 03:29:54;;;;;;;9.53;6.92;;;;;;;8.40;49.40;101605.64;1776619;81;21334;-46
2021/04/08 03:32:22;;;;;;;9.23;7.30;;;;;;;8.42;49.73;101610.41;1737604;82;21145;-49
2021/04/08 03:34:50;;;;;;;9.98;7.85;;;;;;;8.47;49.71;101609.98;1726451;82;21131;-49
2021/04/08 03:37:19;;;;;;;10.03;7.47;;;;;;;8.49;49.92;101601.77;1770284;81;21149;-46
2021/04/08 03:39:47;;;;;;;8.45;7.22;;;;;;;8.51;49.20;101598.75;1734042;82;21153;-48
2021/04/08 03:42:15;;;;;;;8.08;7.28;;;;;;;8.47;48.89;101611.28;1739124;82;21208;-48
2021/04/08 03:44:43;;;;;;;10.13;7.22;;;;;;;8.46;48.99;101618.61;1779174;81;21153;-46
2021/04/08 03:47:13;;;;;;;10.68;7.35;;;;;;;8.45;49.09;101622.92;1772175;81;21282;-49
2021/04/08 03:49:42;;;;;;;8.70;7.20;;;;;;;8.45;49.30;101625.52;1732566;82;21172;-48
2021/04/08 03:52:11;;;;;;;8.88;7.47;;;;;;;8.45;49.43;101635.06;1771674;81;21173;-49
2021/04/08 03:54:39;;;;;;;8.50;6.97;;;;;;;8.44;49.40;101639.38;1730084;82;21153;-46
2021/04/08 03:57:10;;;;;;;8.53;6.83;;;;;;;8.44;49.40;101643.69;1765974;81;21641;-44
2021/04/08 03:59:41;;;;;;;7.80;6.80;;;;;;;8.43;49.14;101645.86;1765817;81;21145;-45
2021/04/08 04:02:11;;;;;;;7.65;6.28;;;;;;;8.41;48.80;101646.30;1756996;81;21145;-46
2021/04/08 04:04:38;;;;;;;9.90;6.40;;;;;;;8.39;48.74;101652.75;1771659;81;21159;-45
2021/04/08 04:07:06;;;;;;;7.85;6.67;;;;;;;8.38;48.73;101656.64;1757207;81;21350;-48
2021/04/08 04:09:34;;;;;;;10.58;7.42;;;;;;;8.38;48.75;101646.27;1748406;81;21113;-45
2021/04/08 04:12:04;;;;;;;9.58;6.83;;;;;;;8.40;48.94;101652.33;1769903;81;21310;-45
2021/04/08 04:14:32;;;;;;;9.60;7.47;;;;;;;8.43;49.21;101660.97;1730356;82;21149;-47
2021/04/08 04:17:00;;;;;;;9.30;7.33;;;;;;;8.49;49.24;101667.91;1777158;81;21545;-48
2021/04/08 04:19:30;;;;;;;10.32;7.20;;;;;;;8.56;49.29;101667.03;1645344;82;21115;-47
2021/04/08 04:21:58;;;;;;;9.45;7.15;;;;;;;8.64;49.21;101660.13;1761949;80;21141;-47
2021/04/08 04:24:26;;;;;;;9.45;7.25;;;;;;;8.69;49.22;101664.89;1774664;81;21545;-48
2021/04/08 04:26:54;;;;;;;8.25;7.37;;;;;;;8.73;49.18;101665.33;1764370;81;21176;-45
2021/04/08 04:29:22;;;;;;;10.20;6.70;;;;;;;8.78;48.95;101664.88;1728736;82;21169;-48
2021/04/08 04:31:49;;;;;;;8.40;5.92;;;;;;;8.80;48.81;101667.04;1779257;81;21565;-47
2021/04/08 04:34:17;;;;;;;9.78;6.87;;;;;;;8.81;48.41;101664.89;1776635;81;21580;-49
2021/04/08 04:36:47;;;;;;;8.53;6.40;;;;;;;8.81;48.55;101670.08;1741312;82;21310;-49
2021/04/08 04:39:16;;;;;;;7.58;6.28;;;;;;;8.83;48.46;101673.55;1727423;82;21358;-46
2021/04/08 04:41:44;;;;;;;8.95;6.55;;;;;;;8.83;48.33;101665.76;1725706;82;21174;-46
2021/04/08 04:44:12;;;;;;;9.35;6.97;;;;;;;8.82;48.51;101667.94;1726816;82;21291;-48
2021/04/08 04:46:41;;;;;;;11.38;6.70;;;;;;;8.81;48.65;101666.19;1777014;81;21144;-49
2021/04/08 04:49:09;;;;;;;12.78;7.35;;;;;;;8.81;48.81;101662.30;1735523;82;21165;-45
2021/04/08 04:51:38;;;;;;;8.75;6.58;;;;;;;8.84;49.09;101666.20;1754617;81;21177;-48
2021/04/08 04:54:06;;;;;;;9.18;6.85;;;;;;;8.90;49.39;101672.23;1767749;81;21152;-48
2021/04/08 04:56:33;;;;;;;8.60;6.60;;;;;;;8.99;49.75;101673.54;1777060;81;21200;-51
2021/04/08 04:59:02;;;;;;;11.43;7.08;;;;;;;9.13;49.76;101675.27;1733783;82;21141;-48
2021/04/08 05:01:31;;;;;;;7.67;5.97;;;;;;;9.24;49.79;101670.91;1768628;81;21133;-49
2021/04/08 05:03:59;;;;;;;8.25;5.50;;;;;;;9.35;49.35;101679.12;1757553;81;21145;-49
2021/04/08 05:06:27;;;;;;;9.15;5.67;;;;;;;9.37;48.56;101664.40;1714826;82;21206;-48
2021/04/08 05:08:56;;;;;;;7.40;5.92;;;;;;;9.35;49.00;101667.44;1773034;80;21101;-46
2021/04/08 05:11:24;;;;;;;7.85;6.00;;;;;;;9.33;49.29;101673.06;1759100;81;21165;-50
2021/04/08 05:13:52;;;;;;;6.37;5.12;;;;;;;9.31;48.88;101667.02;1767988;81;21565;-48
2021/04/08 05:16:20;;;;;;;7.37;5.60;;;;;;;9.22;49.04;101670.91;1765747;81;21165;-48
2021/04/08 05:18:48;;;;;;;8.93;5.87;;;;;;;9.28;48.48;101667.00;1733825;82;21145;-49
2021/04/08 05:21:15;;;;;;;6.85;5.42;;;;;;;9.28;48.47;101667.00;1726171;82;21114;-49
2021/04/08 05:23:43;;;;;;;6.80;4.87;;;;;;;9.27;48.96;101669.61;1762926;81;21538;-46
2021/04/08 05:26:11;;;;;;;4.78;4.25;;;;;;;9.31;49.23;101667.02;1759660;81;21288;-45
2021/04/08 05:28:39;;;;;;;5.50;4.40;;;;;;;9.35;48.43;101662.66;1762880;81;21134;-50
2021/04/08 05:31:08;;;;;;;8.90;5.05;;;;;;;9.35;47.72;101650.98;1731854;82;21315;-45
2021/04/08 05:33:36;;;;;;;5.50;4.50;;;;;;;9.35;47.83;101654.45;1714591;82;21311;-48
2021/04/08 05:36:05;;;;;;;5.30;4.78;;;;;;;9.39;48.36;101660.06;1732127;82;21145;-48
2021/04/08 05:38:33;;;;;;;7.67;4.83;;;;;;;9.39;47.27;101657.47;1731133;82;21149;-46
2021/04/08 05:41:02;;;;;;;7.55;4.75;;;;;;;9.36;47.41;101645.77;1771725;81;21208;-47
2021/04/08 05:43:30;;;;;;;7.15;5.15;;;;;;;9.32;47.70;101657.47;1763536;81;21101;-50
2021/04/08 05:45:59;;;;;;;8.60;5.80;;;;;;;9.31;47.66;101672.20;1776430;81;21137;-49
2021/04/08 05:48:27;;;;;;;8.48;5.70;;;;;;;9.27;47.96;101683.47;1763140;81;21157;-46
2021/04/08 05:50:55;;;;;;;7.25;5.72;;;;;;;9.25;48.07;101686.50;1732710;82;21114;-50
2021/04/08 05:53:23;;;;;;;6.83;5.78;;;;;;;9.26;48.37;101693.41;1767777;81;21141;-46
2021/04/08 05:55:51;;;;;;;7.85;5.50;;;;;;;9.28;48.51;101692.97;1730814;82;21554;-46
2021/04/08 05:58:19;;;;;;;8.28;5.60;;;;;;;9.30;48.76;101691.24;1769498;81;21132;-46
2021/04/08 06:00:47;;;;;;;9.60;5.67;;;;;;;9.34;49.06;101708.55;1717954;82;21146;-49
2021/04/08 06:03:16;;;;;;;9.88;6.75;;;;;;;9.37;48.98;101721.55;1765220;81;21140;-47
2021/04/08 06:05:44;;;;;;;7.25;5.95;;;;;;;9.38;48.33;101733.65;1733652;82;21174;-49
2021/04/08 06:08:12;;;;;;;8.25;5.65;;;;;;;9.39;48.66;101728.90;1774547;80;21550;-45
2021/04/08 06:10:42;;;;;;;8.95;6.70;;;;;;;9.41;48.84;101731.48;1734436;82;21125;-46
2021/04/08 06:13:10;;;;;;;8.03;5.78;;;;;;;9.46;49.31;101738.85;1758513;81;21165;-50
2021/04/08 06:15:40;;;;;;;5.67;4.55;;;;;;;9.50;49.52;101737.98;1768359;81;21593;-49
2021/04/08 06:18:08;;;;;;;10.32;5.35;;;;;;;9.58;48.59;101726.67;1729865;82;21196;-49
2021/04/08 06:20:37;;;;;;;6.75;4.85;;;;;;;9.59;47.20;101732.75;1762379;81;21137;-46
2021/04/08 06:23:06;;;;;;;5.58;4.85;;;;;;;9.68;46.14;101731.02;1767667;81;21153;-48
2021/04/08 06:25:34;;;;;;;9.00;5.50;;;;;;;9.63;46.34;101743.13;1721203;82;21313;-47
2021/04/08 06:28:03;;;;;;;7.50;4.87;;;;;;;9.65;46.69;101738.80;1773802;81;21339;-46
2021/04/08 06:30:31;;;;;;;6.85;5.70;;;;;;;9.72;46.18;101743.13;1772028;81;21326;-48
2021/04/08 06:32:59;;;;;;;7.92;5.37;;;;;;;9.74;45.44;101738.79;1768546;81;21125;-47
2021/04/08 06:35:27;;;;;;;8.48;5.83;;;;;;;9.74;44.93;101733.59;1770513;81;21144;-46
2021/04/08 06:37:56;;;;;;;8.20;5.58;;;;;;;9.72;44.66;101741.83;1756752;81;21739;-49
2021/04/08 06:40:23;;;;;;;9.20;5.95;;;;;;;9.71;45.00;101742.68;1760036;81;21133;-46
2021/04/08 06:42:53;;;;;;;10.13;6.22;;;;;;;9.68;45.15;101744.00;1733215;82;21267;-46
2021/04/08 06:45:24;;;;;;;8.20;6.47;;;;;;;9.71;45.19;101742.68;1766556;81;21137;-46
2021/04/08 06:47:58;;;;;;;6.78;5.67;;;;;;;9.73;45.36;101728.37;1755352;81;21137;-46
2021/04/08 06:50:30;;;;;;;9.33;5.80;;;;;;;9.74;45.97;101733.59;1763047;81;21153;-50
2021/04/08 06:52:58;;;;;;;8.88;5.62;;;;;;;9.81;45.71;101740.48;1713976;82;21142;-46
2021/04/08 06:55:26;;;;;;;8.43;6.17;;;;;;;9.93;46.31;101741.33;1769268;81;21135;-47
2021/04/08 06:57:54;;;;;;;8.03;5.47;;;;;;;10.06;45.72;101741.69;1767228;81;21141;-50
2021/04/08 07:00:24;;;;;;;7.95;5.72;;;;;;;10.15;45.41;101755.58;1770951;81;21144;-49
2021/04/08 07:02:53;;;;;;;8.90;6.55;;;;;;;10.21;45.62;101755.97;1756895;81;21200;-51
2021/04/08 07:05:21;;;;;;;8.53;6.28;;;;;;;10.30;44.92;101755.52;1755600;81;21148;-48
2021/04/08 07:07:49;;;;;;;14.10;6.12;;;;;;;10.36;44.21;101761.11;1761048;81;21128;-46
2021/04/08 07:10:17;;;;;;;6.80;5.72;;;;;;;10.40;44.84;101765.43;1732753;82;21582;-46
2021/04/08 07:12:46;;;;;;;7.95;5.33;;;;;;;10.44;44.32;101761.94;1763338;81;21117;-49
2021/04/08 07:15:18;;;;;;;8.40;6.00;;;;;;;10.46;43.65;101763.67;1728721;82;21121;-49
2021/04/08 07:17:47;;;;;;;7.20;6.10;;;;;;;10.48;44.78;101767.55;1769925;81;21271;-46
2021/04/08 07:20:16;;;;;;;9.15;6.20;;;;;;;10.57;44.92;101770.13;1729623;82;21133;-46
2021/04/08 07:22:44;;;;;;;6.92;5.65;;;;;;;10.67;44.43;101764.41;1760537;81;21157;-50
2021/04/08 07:25:20;;;;;;;7.95;5.60;;;;;;;10.73;44.35;101766.97;1769494;81;21157;-47
2021/04/08 07:27:48;;;;;;;7.03;5.03;;;;;;;10.73;44.75;101767.84;1726754;82;21190;-52
2021/04/08 07:30:20;;;;;;;6.55;5.17;;;;;;;10.76;43.59;101777.38;1721954;82;21140;-50
2021/04/08 07:33:00;;;;;;;6.87;5.15;;;;;;;10.84;43.09;101763.41;1716893;83;21156;-48
2021/04/08 07:35:33;;;;;;;6.87;5.05;;;;;;;10.86;44.06;101760.36;1717962;82;21612;-52
2021/04/08 07:38:08;;;;;;;7.22;5.33;;;;;;;10.94;41.98;101757.27;1798540;79;23170;-49
2021/04/08 07:40:35;;;;;;;9.23;6.03;;;;;;;10.82;42.29;101757.35;1776530;80;21304;-49
2021/04/08 07:43:14;;;;;;;8.53;5.05;;;;;;;10.76;42.67;101748.75;1781968;80;21124;-49
2021/04/08 07:45:43;;;;;;;7.05;4.97;;;;;;;10.73;41.97;101752.23;1793283;80;21711;-49
2021/04/08 07:48:11;;;;;;;10.68;5.17;;;;;;;10.75;42.55;101747.00;1790686;80;21155;-47
2021/04/08 07:50:40;;;;;;;7.87;5.58;;;;;;;10.76;42.26;101755.26;1788379;80;21278;-48
2021/04/08 07:53:08;;;;;;;6.67;5.25;;;;;;;10.80;43.13;101760.41;1716504;81;21191;-46
2021/04/08 07:55:37;;;;;;;7.85;5.42;;;;;;;10.87;42.70;101767.74;1717354;82;21148;-48
2021/04/08 07:58:16;;;;;;;6.58;4.83;;;;;;;10.91;42.89;101778.13;1736186;82;21313;-49
2021/04/08 08:00:53;;;;;;;9.50;5.40;;;;;;;10.94;42.40;101778.09;1740870;82;21186;-46
2021/04/08 08:03:32;;;;;;;8.00;5.53;;;;;;;10.99;41.97;101797.17;1742565;82;21137;-46
2021/04/08 08:06:03;;;;;;;9.08;5.85;;;;;;;10.99;42.54;101797.59;1724887;82;21161;-46
2021/04/08 08:08:41;;;;;;;6.65;5.30;;;;;;;10.99;41.94;101801.08;1742440;82;21197;-50
2021/04/08 08:13:53;;;;;;;8.43;5.15;;;;;;;11.03;41.74;101809.30;1776479;79;23046;-49
2021/04/08 08:16:25;;;;;;;5.72;4.72;;;;;;;11.01;42.17;101813.65;1670095;84;21171;-46
2021/04/08 08:18:57;;;;;;;;;;;;;;;11.11;42.60;101817.92;1698479;83;21173;-47
2021/04/08 08:21:37;;;;;;;7.28;4.92;;;;;;;11.16;41.52;101823.97;1689141;84;20225;-48
2021/04/08 08:24:13;;;;;;;5.67;5.00;;;;;;;11.16;41.23;101834.39;1667093;84;21187;-49
2021/04/08 08:26:45;;;;;;;9.08;5.40;;;;;;;11.21;41.15;101839.58;1680059;85;21204;-46
2021/04/08 08:29:22;;;;;;;9.95;5.80;;;;;;;11.27;41.77;101837.77;1686111;85;22584;-47
2021/04/08 08:31:59;;;;;;;7.92;4.95;;;;;;;11.41;42.08;101845.50;1679844;85;21203;-49
2021/04/08 08:34:30;;;;;;;7.10;5.12;;;;;;;11.55;41.92;101848.85;1675574;85;21204;-49
2021/04/08 08:37:03;;;;;;;7.28;4.00;;;;;;;11.66;40.38;101846.16;1682009;84;21585;-49
2021/04/08 08:39:34;;;;;;;5.70;4.72;;;;;;;11.62;39.93;101849.67;1682574;85;21204;-45
2021/04/08 08:42:05;;;;;;;7.08;5.37;;;;;;;11.66;39.76;101853.58;1675556;85;21152;-45
2021/04/08 08:44:33;;;;;;;5.12;4.53;;;;;;;11.61;39.83;101858.36;1684540;85;21637;-46
2021/04/08 08:47:18;;;;;;;6.58;4.12;;;;;;;11.71;39.70;101864.81;1687039;85;21330;-50
2021/04/08 08:50:11;;;;;;;5.08;4.40;;;;;;;11.76;38.71;101864.78;1686727;85;21605;-50
2021/04/08 08:52:42;;;;;;;6.25;4.70;;;;;;;11.73;38.58;101863.48;1680114;85;21174;-46
2021/04/08 08:55:15;;;;;;;6.95;4.65;;;;;;;11.66;39.23;101865.71;1684728;85;21176;-45
2021/04/08 08:57:52;;;;;;;7.50;4.30;;;;;;;11.70;38.87;101863.53;1766708;79;22774;-49
2021/04/08 09:00:23;;;;;;;7.97;4.90;;;;;;;11.65;39.37;101863.97;1662811;85;21262;-49
2021/04/08 09:02:52;;;;;;;7.92;4.72;;;;;;;11.65;39.02;101868.75;1725950;83;21627;-51
2021/04/08 09:05:21;;;;;;;6.30;4.47;;;;;;;11.64;38.75;101867.47;1718530;83;21159;-49
2021/04/08 09:07:58;;;;;;;7.12;4.50;;;;;;;11.64;38.97;101868.77;1681134;83;21171;-49
2021/04/08 09:10:34;;;;;;;6.92;4.70;;;;;;;11.62;39.03;101868.80;1802148;79;23044;-46
2021/04/08 09:13:05;;;;;;;5.55;4.30;;;;;;;11.57;39.44;101873.59;1778320;80;21282;-47
2021/04/08 09:15:36;;;;;;;5.03;4.53;;;;;;;11.63;40.17;101878.76;1758328;80;21109;-46
2021/04/08 09:18:09;;;;;;;6.33;4.90;;;;;;;11.71;39.85;101879.16;1775866;80;21135;-47
2021/04/08 09:20:39;;;;;;;5.92;4.00;;;;;;;11.81;39.58;101874.75;1772687;80;21162;-45
2021/04/08 09:23:12;;;;;;;5.05;4.33;;;;;;;11.98;38.99;101878.04;1775564;80;21176;-45
2021/04/08 09:25:53;;;;;;;11.40;5.15;;;;;;;12.07;37.72;101874.05;1780763;80;21222;-49
2021/04/08 09:28:26;;;;;;;9.58;4.58;;;;;;;12.06;37.71;101876.22;1671203;85;21628;-47
2021/04/08 09:33:43;;;;;;;7.17;4.65;;;;;;;12.28;38.27;101873.83;1764476;79;23539;-49
2021/04/08 09:36:26;;;;;;;6.03;4.33;;;;;;;12.30;36.69;101875.11;1683924;82;21640;-46
2021/04/08 09:39:05;;;;;;;7.00;4.55;;;;;;;12.27;37.24;101870.78;1672292;84;22345;-47
2021/04/08 09:41:51;;;;;;;7.13;4.43;;;;;;;12.39;36.85;101870.64;1674883;84;21337;-49
2021/04/08 09:44:20;;;;;;;6.92;4.70;;;;;;;12.47;37.05;101869.27;1662151;84;21614;-49
2021/04/08 09:46:59;;;;;;;8.88;4.72;;;;;;;12.53;37.43;101867.42;1667858;84;21362;-48
2021/04/08 09:49:45;;;;;;;6.20;4.58;;;;;;;12.61;37.42;101858.21;1664484;84;21588;-46
2021/04/08 09:52:14;;;;;;;5.78;4.42;;;;;;;12.66;36.83;101859.88;1674326;84;21178;-47
2021/04/08 09:54:54;;;;;;;6.42;5.37;;;;;;;12.62;37.13;101860.80;1668676;84;21243;-46
2021/04/08 09:57:37;;;;;;;7.17;5.40;;;;;;;12.58;36.98;101861.72;1658091;83;21214;-47
2021/04/08 10:00:14;;;;;;;6.75;5.05;;;;;;;12.57;36.90;101863.89;1801869;79;23088;-47
2021/04/08 10:03:05;;;;;;;8.33;5.92;;;;;;;12.57;37.39;101866.50;1783473;80;21132;-46
2021/04/08 10:05:42;;;;;;;5.25;4.50;;;;;;;12.55;37.66;101856.52;1698569;82;21649;-47
2021/04/08 10:08:10;;;;;;;7.72;4.92;;;;;;;12.59;37.83;101863.43;1719773;82;21143;-48
2021/04/08 10:10:44;;;;;;;6.40;4.47;;;;;;;12.65;37.05;101862.05;1723176;82;21755;-49
2021/04/08 10:13:32;;;;;;;7.83;4.33;;;;;;;12.77;35.28;101864.53;1713589;82;21584;-48
2021/04/08 10:16:13;;;;;;;8.48;4.83;;;;;;;12.81;35.74;101860.12;1758605;79;23052;-52
2021/04/08 10:18:41;;;;;;;6.42;4.37;;;;;;;12.79;35.00;101856.23;1732755;82;21148;-48
2021/04/08 10:21:15;;;;;;;4.85;4.35;;;;;;;12.75;34.81;101859.77;1733416;82;21150;-49
2021/04/08 10:23:50;;;;;;;7.95;4.83;;;;;;;12.76;35.33;101850.16;1696269;84;21218;-47
2021/04/08 10:26:31;;;;;;;7.65;4.85;;;;;;;12.85;35.82;101849.61;1766862;79;22754;-47
2021/04/08 10:29:01;;;;;;;4.80;3.90;;;;;;;12.85;35.57;101850.92;1731391;82;21188;-47
2021/04/08 10:31:37;;;;;;;5.12;4.05;;;;;;;12.89;35.27;101862.18;1728719;82;21290;-47
2021/04/08 10:36:54;;;;;;;5.03;3.92;;;;;;;12.88;32.88;101851.33;1622852;85;21258;-48
2021/04/08 10:39:29;;;;;;;7.67;4.50;;;;;;;12.80;33.75;101859.67;1770650;79;23061;-47
2021/04/08 10:42:02;;;;;;;6.42;3.72;;;;;;;12.66;33.99;101861.17;1736898;82;21192;-46
2021/04/08 10:44:42;;;;;;;4.03;3.12;;;;;;;12.59;33.16;101857.37;1739641;82;21595;-46
2021/04/08 10:47:17;;;;;;;4.33;3.90;;;;;;;12.58;32.83;101851.27;1734784;82;21576;-49
2021/04/08 10:49:56;;;;;;;5.83;3.83;;;;;;;12.66;33.69;101853.77;1739367;82;21301;-50
2021/04/08 10:52:31;;;;;;;4.55;3.77;;;;;;;12.75;33.95;101861.07;1734399;82;21140;-50
2021/04/08 10:55:06;;;;;;;4.50;4.10;;;;;;;12.80;33.99;101864.47;1734261;82;21305;-48
2021/04/08 10:57:34;;;;;;;7.67;3.90;;;;;;;12.84;33.66;101860.05;1733370;82;21188;-47
2021/04/08 11:00:08;;;;;;;6.22;3.98;;;;;;;12.89;32.29;101865.66;1737375;81;21117;-46
2021/04/08 11:02:42;;;;;;;4.55;3.95;;;;;;;12.82;32.81;101866.61;1741485;82;21581;-49
2021/04/08 11:05:21;;;;;;;4.58;3.90;;;;;;;12.78;33.14;101864.93;1744497;82;21112;-51
2021/04/08 11:07:54;;;;;;;5.65;4.50;;;;;;;12.77;33.08;101868.45;1663792;85;21648;-47
2021/04/08 11:10:30;;;;;;;5.05;3.95;;;;;;;12.75;33.60;101862.38;1663408;85;21172;-47
2021/04/08 11:13:05;;;;;;;4.95;3.98;;;;;;;12.88;33.58;101853.47;1767973;79;23503;-45
2021/04/08 11:15:35;;;;;;;7.42;4.35;;;;;;;12.88;34.14;101860.00;1658431;85;21294;-50
2021/04/08 11:18:21;;;;;;;4.70;3.80;;;;;;;12.96;33.63;101862.06;1674449;85;21170;-52
2021/04/08 11:20:50;;;;;;;8.38;4.25;;;;;;;13.05;33.69;101859.37;1692262;84;21208;-51
2021/04/08 11:23:19;;;;;;;5.17;4.25;;;;;;;13.18;33.28;101861.36;1669374;84;21216;-47
2021/04/08 11:26:03;;;;;;;5.25;4.20;;;;;;;13.25;32.58;101863.45;1697926;84;21155;-50
2021/04/08 11:28:31;;;;;;;7.40;4.47;;;;;;;13.23;32.89;101860.83;1654915;86;21652;-49
2021/04/08 11:31:16;;;;;;;5.12;4.12;;;;;;;13.23;33.29;101862.14;1655514;85;21246;-49
2021/04/08 11:33:57;;;;;;;6.62;4.35;;;;;;;13.27;32.67;101860.37;1809135;79;22968;-48
2021/04/08 11:36:27;;;;;;;4.20;3.80;;;;;;;13.22;32.92;101855.64;1779319;80;21128;-51
2021/04/08 11:38:56;;;;;;;5.42;3.87;;;;;;;13.25;33.09;101855.61;1789082;80;21159;-49
2021/04/08 11:41:29;;;;;;;5.30;3.50;;;;;;;13.24;32.73;101857.34;1775674;80;21137;-47
2021/04/08 11:43:57;;;;;;;5.65;3.52;;;;;;;13.27;32.17;101856.44;1776804;80;21156;-48
2021/04/08 11:46:37;;;;;;;7.45;3.40;;;;;;;13.33;32.48;101848.50;1783243;80;21139;-48
2021/04/08 11:49:16;;;;;;;5.83;3.77;;;;;;;13.37;32.58;101850.19;1747497;82;21699;-49
2021/04/08 11:51:44;;;;;;;5.87;3.40;;;;;;;13.43;32.64;101851.39;1704298;83;21181;-46
2021/04/08 11:54:17;;;;;;;4.60;3.50;;;;;;;13.52;32.57;101849.91;1698755;83;21174;-46
2021/04/08 11:56:47;;;;;;;4.67;3.67;;;;;;;13.64;32.09;101852.35;1711845;83;21148;-46